createdAt,value
2023-06-30T00:03:00.843Z,89.37
2023-06-30T00:08:10.114Z,92.49
2023-06-30T00:13:09.905Z,96.61
2023-06-30T00:18:02.199Z,100.00
2023-06-30T00:22:54.787Z,100.00
2023-06-30T00:27:49.285Z,100.00
2023-06-30T00:32:42.120Z,100.00
2023-06-30T00:37:38.431Z,100.00
2023-06-30T00:42:30.746Z,100.00
2023-06-30T00:47:24.368Z,100.00
2023-06-30T00:52:19.092Z,100.00
2023-06-30T00:57:11.652Z,100.00
2023-06-30T01:02:20.717Z,100.00
2023-06-30T01:07:40.277Z,100.00
2023-06-30T01:12:35.757Z,100.00
2023-06-30T01:17:29.448Z,100.00
2023-06-30T01:22:29.678Z,100.00
2023-06-30T01:27:26.982Z,100.00
2023-06-30T01:32:20.527Z,100.00
2023-06-30T01:37:14.592Z,100.00
2023-06-30T01:42:11.100Z,100.00
2023-06-30T01:47:04.177Z,100.00
2023-06-30T01:52:02.099Z,98.79
2023-06-30T01:56:55.504Z,98.70
2023-06-30T02:01:49.670Z,97.07
2023-06-30T02:06:44.371Z,95.49
2023-06-30T02:11:37.125Z,94.42
2023-06-30T02:16:29.213Z,92.88
2023-06-30T02:21:26.224Z,93.69
2023-06-30T02:26:20.206Z,94.44
2023-06-30T02:31:14.054Z,91.16
2023-06-30T02:36:06.289Z,91.39
2023-06-30T02:40:59.272Z,90.19
2023-06-30T02:45:52.358Z,90.25
2023-06-30T02:50:47.005Z,90.78
2023-06-30T02:55:43.722Z,93.00
2023-06-30T03:00:41.249Z,92.53
2023-06-30T03:05:35.517Z,94.30
2023-06-30T03:10:30.492Z,92.72
2023-06-30T03:15:25.881Z,95.78
2023-06-30T03:20:20.383Z,96.32
2023-06-30T03:25:12.595Z,94.96
2023-06-30T03:30:06.211Z,96.04
2023-06-30T03:35:04.467Z,76.99
2023-06-30T03:39:58.807Z,92.22
2023-06-30T03:44:50.809Z,93.20
2023-06-30T03:49:45.097Z,91.01
2023-06-30T03:54:37.174Z,90.00
2023-06-30T03:59:29.681Z,91.73
2023-06-30T04:04:24.545Z,91.87
2023-06-30T04:09:19.101Z,90.06
2023-06-30T04:14:11.999Z,90.33
2023-06-30T04:19:04.079Z,89.01
2023-06-30T04:23:58.134Z,89.95
2023-06-30T04:28:50.522Z,89.03
2023-06-30T04:33:42.530Z,88.59
2023-06-30T04:38:36.182Z,87.98
2023-06-30T04:43:30.738Z,88.21
2023-06-30T04:48:23.701Z,88.86
2023-06-30T04:53:16.161Z,89.72
2023-06-30T04:58:09.317Z,87.37
2023-06-30T05:03:03.608Z,85.57
2023-06-30T05:07:57.355Z,87.09
2023-06-30T05:12:51.429Z,85.56
2023-06-30T05:17:43.519Z,83.34
2023-06-30T05:22:36.677Z,81.19
2023-06-30T05:27:28.766Z,78.53
2023-06-30T05:32:21.299Z,78.01
2023-06-30T05:37:18.539Z,73.19
2023-06-30T05:42:10.735Z,70.50
2023-06-30T05:47:05.202Z,67.93
2023-06-30T05:51:59.948Z,66.96
2023-06-30T05:56:53.515Z,67.19
2023-06-30T06:01:46.758Z,64.39
2023-06-30T06:12:10.572Z,61.94
2023-06-30T06:17:02.745Z,60.88
2023-06-30T06:21:54.829Z,59.55
2023-06-30T06:26:46.970Z,57.13
2023-06-30T06:31:41.140Z,56.23
2023-06-30T06:36:33.421Z,51.70
2023-06-30T06:41:28.563Z,48.69
2023-06-30T06:46:21.776Z,45.99
2023-06-30T06:51:14.195Z,44.82
2023-06-30T06:56:07.317Z,45.20
2023-06-30T07:06:09.541Z,33.55
2023-06-30T07:11:06.367Z,30.25
2023-06-30T07:16:00.210Z,28.54
2023-06-30T07:20:56.807Z,28.04
2023-06-30T07:31:00.010Z,29.46
2023-06-30T07:35:53.972Z,29.29
2023-06-30T07:40:56.083Z,26.57
2023-06-30T07:51:09.138Z,26.92
2023-06-30T07:56:05.924Z,28.47
2023-06-30T08:00:58.835Z,28.30
2023-06-30T08:05:53.738Z,29.47
2023-06-30T08:10:52.548Z,27.83
2023-06-30T08:15:50.301Z,24.51
2023-06-30T08:20:52.551Z,22.50
2023-06-30T08:25:54.930Z,23.07
2023-06-30T08:30:54.467Z,22.93
2023-06-30T08:35:52.398Z,23.15
2023-06-30T08:40:45.273Z,22.26
2023-06-30T08:45:40.381Z,21.11
2023-06-30T08:50:43.258Z,20.34
2023-06-30T08:55:45.855Z,20.66
2023-06-30T09:00:40.649Z,20.16
2023-06-30T09:05:57.812Z,20.56
2023-06-30T09:10:59.362Z,21.43
2023-06-30T09:15:58.324Z,20.65
2023-06-30T09:20:51.248Z,20.78
2023-06-30T09:25:46.586Z,21.39
2023-06-30T09:30:44.199Z,19.97
2023-06-30T09:36:05.760Z,21.17
2023-06-30T09:46:17.554Z,23.23
2023-06-30T09:51:20.874Z,22.43
2023-06-30T10:23:37.008Z,26.71
2023-06-30T10:33:49.192Z,27.19
2023-06-30T10:38:47.153Z,27.07
2023-06-30T10:44:05.101Z,27.95
2023-06-30T10:54:06.380Z,29.32
2023-06-30T10:59:08.523Z,27.41
2023-06-30T11:04:13.291Z,27.83
2023-06-30T11:29:59.608Z,27.90
2023-06-30T11:34:55.157Z,27.41
2023-06-30T11:45:08.589Z,27.04
2023-06-30T12:00:30.911Z,28.24
2023-06-30T12:05:27.814Z,27.44
2023-06-30T12:10:20.954Z,26.88
2023-06-30T12:20:25.684Z,26.73
2023-06-30T12:25:28.791Z,28.12
2023-06-30T12:30:23.921Z,29.34
2023-06-30T12:40:35.185Z,29.63
2023-06-30T14:24:39.228Z,27.62
2023-06-30T14:29:31.908Z,26.62
2023-06-30T14:34:27.928Z,28.36
2023-06-30T14:44:37.189Z,27.80
2023-06-30T15:05:55.114Z,26.96
2023-06-30T15:37:16.663Z,28.07
2023-06-30T17:25:51.444Z,31.68
2023-06-30T18:38:15.629Z,36.15
2023-06-30T18:43:11.519Z,37.16
2023-06-30T19:42:43.787Z,42.37
2023-06-30T19:58:18.637Z,43.37
2023-06-30T20:08:51.461Z,44.36
2023-06-30T20:13:49.936Z,44.89
2023-06-30T20:19:38.526Z,45.12
2023-06-30T20:24:37.528Z,45.47
2023-06-30T20:52:04.949Z,46.30
2023-06-30T21:03:20.014Z,46.62
2023-06-30T21:26:53.914Z,49.30
2023-06-30T21:37:09.466Z,49.80
2023-06-30T21:42:05.906Z,50.54
2023-06-30T21:47:48.869Z,50.68
2023-06-30T21:52:41.348Z,50.41
2023-06-30T22:21:34.716Z,49.64
2023-06-30T22:33:12.938Z,50.28
2023-06-30T22:38:05.446Z,50.61
2023-06-30T22:42:57.810Z,50.66
2023-06-30T22:47:50.136Z,50.66
2023-06-30T22:52:42.411Z,50.69
2023-06-30T22:57:40.781Z,50.49
2023-06-30T23:02:36.837Z,50.12
2023-06-30T23:07:35.333Z,49.98
2023-06-30T23:12:29.445Z,49.87
2023-06-30T23:17:29.335Z,50.27
2023-06-30T23:32:59.048Z,50.46
2023-06-30T23:37:54.984Z,50.76
2023-06-30T23:42:51.684Z,50.68
2023-06-30T23:50:33.854Z,50.61
2023-06-30T23:55:25.754Z,50.59
